sensor_id;sensor_type;location;lat;lon;timestamp;pressure;altitude;pressure_sealevel;temperature
12409;BMP180;6268;48.188;17.134;2022-08-30T00:00:18;49646.84;;;-134.68
12409;BMP180;6268;48.188;17.134;2022-08-30T00:03:07;49644.88;;;-134.68
12409;BMP180;6268;48.188;17.134;2022-08-30T00:05:37;49642.94;;;-134.68
12409;BMP180;6268;48.188;17.134;2022-08-30T00:08:06;49646.84;;;-134.68
12409;BMP180;6268;48.188;17.134;2022-08-30T00:10:37;49642.94;;;-134.68
12409;BMP180;6268;48.188;17.134;2022-08-30T00:13:08;49644.88;;;-134.68
12409;BMP180;6268;48.188;17.134;2022-08-30T00:15:39;49642.94;;;-134.68
12409;BMP180;6268;48.188;17.134;2022-08-30T00:18:09;49642.94;;;-134.68
12409;BMP180;6268;48.188;17.134;2022-08-30T00:20:38;49646.84;;;-134.68
12409;BMP180;6268;48.188;17.134;2022-08-30T00:23:06;49642.94;;;-134.68
12409;BMP180;6268;48.188;17.134;2022-08-30T00:25:37;49644.88;;;-134.68
12409;BMP180;6268;48.188;17.134;2022-08-30T00:28:06;49644.88;;;-134.68
12409;BMP180;6268;48.188;17.134;2022-08-30T00:30:36;49646.84;;;-134.68
12409;BMP180;6268;48.188;17.134;2022-08-30T00:33:06;49646.84;;;-134.68
12409;BMP180;6268;48.188;17.134;2022-08-30T00:35:35;49642.94;;;-134.68
12409;BMP180;6268;48.188;17.134;2022-08-30T00:38:05;49644.88;;;-134.68
12409;BMP180;6268;48.188;17.134;2022-08-30T00:40:36;49642.94;;;-134.68
12409;BMP180;6268;48.188;17.134;2022-08-30T00:43:17;49644.88;;;-134.68
12409;BMP180;6268;48.188;17.134;2022-08-30T00:45:46;49642.94;;;-134.68
12409;BMP180;6268;48.188;17.134;2022-08-30T00:48:16;49642.94;;;-134.68
12409;BMP180;6268;48.188;17.134;2022-08-30T00:50:51;49642.94;;;-134.68
12409;BMP180;6268;48.188;17.134;2022-08-30T00:53:26;49642.94;;;-134.68
12409;BMP180;6268;48.188;17.134;2022-08-30T00:55:59;49642.94;;;-134.68
12409;BMP180;6268;48.188;17.134;2022-08-30T00:58:33;49642.94;;;-134.68
12409;BMP180;6268;48.188;17.134;2022-08-30T01:01:05;49642.94;;;-134.68
12409;BMP180;6268;48.188;17.134;2022-08-30T01:03:36;49641.00;;;-134.68
12409;BMP180;6268;48.188;17.134;2022-08-30T01:06:06;49642.94;;;-134.68
12409;BMP180;6268;48.188;17.134;2022-08-30T01:08:35;49642.94;;;-134.68
12409;BMP180;6268;48.188;17.134;2022-08-30T01:11:06;49644.88;;;-134.68
12409;BMP180;6268;48.188;17.134;2022-08-30T01:13:35;49644.88;;;-134.68
12409;BMP180;6268;48.188;17.134;2022-08-30T01:16:06;49641.00;;;-134.68
12409;BMP180;6268;48.188;17.134;2022-08-30T01:18:36;49642.94;;;-134.68
12409;BMP180;6268;48.188;17.134;2022-08-30T01:21:15;49642.94;;;-134.68
12409;BMP180;6268;48.188;17.134;2022-08-30T01:23:50;49642.94;;;-134.68
12409;BMP180;6268;48.188;17.134;2022-08-30T01:26:21;49642.94;;;-134.68
12409;BMP180;6268;48.188;17.134;2022-08-30T01:28:54;49641.00;;;-134.68
12409;BMP180;6268;48.188;17.134;2022-08-30T01:31:24;49644.88;;;-134.68
12409;BMP180;6268;48.188;17.134;2022-08-30T01:33:53;49642.94;;;-134.68
12409;BMP180;6268;48.188;17.134;2022-08-30T01:36:23;49642.94;;;-134.68
12409;BMP180;6268;48.188;17.134;2022-08-30T01:38:56;49642.94;;;-134.68
12409;BMP180;6268;48.188;17.134;2022-08-30T01:41:29;49642.94;;;-134.68
12409;BMP180;6268;48.188;17.134;2022-08-30T01:44:00;49644.88;;;-134.68
12409;BMP180;6268;48.188;17.134;2022-08-30T01:46:31;49642.94;;;-134.68
12409;BMP180;6268;48.188;17.134;2022-08-30T01:49:06;49642.94;;;-134.68
12409;BMP180;6268;48.188;17.134;2022-08-30T01:51:37;49642.94;;;-134.68
12409;BMP180;6268;48.188;17.134;2022-08-30T01:54:08;49642.94;;;-134.68
12409;BMP180;6268;48.188;17.134;2022-08-30T01:56:37;49642.94;;;-134.68
12409;BMP180;6268;48.188;17.134;2022-08-30T01:59:06;49642.94;;;-134.68
12409;BMP180;6268;48.188;17.134;2022-08-30T02:01:36;49642.94;;;-134.68
12409;BMP180;6268;48.188;17.134;2022-08-30T02:04:08;49642.94;;;-134.68
12409;BMP180;6268;48.188;17.134;2022-08-30T02:06:39;49641.00;;;-134.68
12409;BMP180;6268;48.188;17.134;2022-08-30T02:09:10;49642.94;;;-134.68
12409;BMP180;6268;48.188;17.134;2022-08-30T02:11:39;49642.94;;;-134.68
12409;BMP180;6268;48.188;17.134;2022-08-30T02:14:08;49644.88;;;-134.68
12409;BMP180;6268;48.188;17.134;2022-08-30T02:16:36;49641.00;;;-134.68
12409;BMP180;6268;48.188;17.134;2022-08-30T02:19:06;49641.00;;;-134.68
12409;BMP180;6268;48.188;17.134;2022-08-30T02:21:38;49641.00;;;-134.68
12409;BMP180;6268;48.188;17.134;2022-08-30T02:24:09;49642.94;;;-134.68
12409;BMP180;6268;48.188;17.134;2022-08-30T02:26:37;49644.88;;;-134.68
12409;BMP180;6268;48.188;17.134;2022-08-30T02:29:06;49642.94;;;-134.68
12409;BMP180;6268;48.188;17.134;2022-08-30T02:31:35;49644.88;;;-134.68
12409;BMP180;6268;48.188;17.134;2022-08-30T02:34:04;49644.88;;;-134.68
12409;BMP180;6268;48.188;17.134;2022-08-30T02:36:32;49642.94;;;-134.68
12409;BMP180;6268;48.188;17.134;2022-08-30T02:39:02;49642.94;;;-134.68
12409;BMP180;6268;48.188;17.134;2022-08-30T02:41:32;49642.94;;;-134.68
12409;BMP180;6268;48.188;17.134;2022-08-30T02:44:02;49642.94;;;-134.68
12409;BMP180;6268;48.188;17.134;2022-08-30T02:46:30;49646.84;;;-134.68
12409;BMP180;6268;48.188;17.134;2022-08-30T02:49:01;49642.94;;;-134.68
12409;BMP180;6268;48.188;17.134;2022-08-30T02:51:50;49642.94;;;-134.68
12409;BMP180;6268;48.188;17.134;2022-08-30T02:54:18;49642.94;;;-134.68
12409;BMP180;6268;48.188;17.134;2022-08-30T02:56:49;49644.88;;;-134.68
12409;BMP180;6268;48.188;17.134;2022-08-30T02:59:18;49642.94;;;-134.68
12409;BMP180;6268;48.188;17.134;2022-08-30T03:01:47;49641.00;;;-134.68
12409;BMP180;6268;48.188;17.134;2022-08-30T03:04:16;49642.94;;;-134.68
12409;BMP180;6268;48.188;17.134;2022-08-30T03:06:52;49644.88;;;-134.68
12409;BMP180;6268;48.188;17.134;2022-08-30T03:09:21;49644.88;;;-134.68
12409;BMP180;6268;48.188;17.134;2022-08-30T03:11:52;49646.84;;;-134.68
12409;BMP180;6268;48.188;17.134;2022-08-30T03:14:20;49642.94;;;-134.68
12409;BMP180;6268;48.188;17.134;2022-08-30T03:16:50;49644.88;;;-134.68
12409;BMP180;6268;48.188;17.134;2022-08-30T03:19:19;49642.94;;;-134.68
12409;BMP180;6268;48.188;17.134;2022-08-30T03:21:48;49642.94;;;-134.68
12409;BMP180;6268;48.188;17.134;2022-08-30T03:24:17;49642.94;;;-134.68
12409;BMP180;6268;48.188;17.134;2022-08-30T03:26:46;49642.94;;;-134.68
12409;BMP180;6268;48.188;17.134;2022-08-30T03:29:16;49644.88;;;-134.68
12409;BMP180;6268;48.188;17.134;2022-08-30T03:31:45;49646.84;;;-134.68
12409;BMP180;6268;48.188;17.134;2022-08-30T03:34:21;49642.94;;;-134.68
12409;BMP180;6268;48.188;17.134;2022-08-30T03:36:51;49642.94;;;-134.68
12409;BMP180;6268;48.188;17.134;2022-08-30T03:39:22;49642.94;;;-134.68
12409;BMP180;6268;48.188;17.134;2022-08-30T03:41:52;49644.88;;;-134.68
12409;BMP180;6268;48.188;17.134;2022-08-30T03:44:22;49642.94;;;-134.68
12409;BMP180;6268;48.188;17.134;2022-08-30T03:46:52;49644.88;;;-134.68
12409;BMP180;6268;48.188;17.134;2022-08-30T03:49:20;49644.88;;;-134.68
12409;BMP180;6268;48.188;17.134;2022-08-30T03:51:50;49642.94;;;-134.68
12409;BMP180;6268;48.188;17.134;2022-08-30T03:54:19;49646.84;;;-134.68
12409;BMP180;6268;48.188;17.134;2022-08-30T03:56:51;49646.84;;;-134.68
12409;BMP180;6268;48.188;17.134;2022-08-30T03:59:22;49646.84;;;-134.68
12409;BMP180;6268;48.188;17.134;2022-08-30T04:01:51;49644.88;;;-134.68
12409;BMP180;6268;48.188;17.134;2022-08-30T04:04:20;49642.94;;;-134.68
12409;BMP180;6268;48.188;17.134;2022-08-30T04:06:49;49644.88;;;-134.68
12409;BMP180;6268;48.188;17.134;2022-08-30T04:09:18;49642.94;;;-134.68
12409;BMP180;6268;48.188;17.134;2022-08-30T04:11:47;49642.94;;;-134.68
12409;BMP180;6268;48.188;17.134;2022-08-30T04:14:16;49644.88;;;-134.68
12409;BMP180;6268;48.188;17.134;2022-08-30T04:16:47;49646.84;;;-134.68
12409;BMP180;6268;48.188;17.134;2022-08-30T04:19:15;49646.84;;;-134.68
12409;BMP180;6268;48.188;17.134;2022-08-30T04:21:45;49646.84;;;-134.68
12409;BMP180;6268;48.188;17.134;2022-08-30T04:24:13;49646.84;;;-134.68
12409;BMP180;6268;48.188;17.134;2022-08-30T04:26:42;49642.94;;;-134.68
12409;BMP180;6268;48.188;17.134;2022-08-30T04:29:11;49644.88;;;-134.68
12409;BMP180;6268;48.188;17.134;2022-08-30T04:31:43;49644.88;;;-134.68
12409;BMP180;6268;48.188;17.134;2022-08-30T04:34:14;49641.00;;;-134.68
12409;BMP180;6268;48.188;17.134;2022-08-30T04:36:43;49642.94;;;-134.68
12409;BMP180;6268;48.188;17.134;2022-08-30T04:39:14;49644.88;;;-134.68
12409;BMP180;6268;48.188;17.134;2022-08-30T04:41:43;49642.94;;;-134.68
12409;BMP180;6268;48.188;17.134;2022-08-30T04:44:12;49644.88;;;-134.68
12409;BMP180;6268;48.188;17.134;2022-08-30T04:46:45;49642.94;;;-134.68
12409;BMP180;6268;48.188;17.134;2022-08-30T04:49:16;49644.88;;;-134.68
12409;BMP180;6268;48.188;17.134;2022-08-30T04:51:44;49646.84;;;-134.68
12409;BMP180;6268;48.188;17.134;2022-08-30T04:54:13;49646.84;;;-134.68
12409;BMP180;6268;48.188;17.134;2022-08-30T04:56:42;49644.88;;;-134.68
12409;BMP180;6268;48.188;17.134;2022-08-30T04:59:11;49644.88;;;-134.68
12409;BMP180;6268;48.188;17.134;2022-08-30T05:01:40;49642.94;;;-134.68
12409;BMP180;6268;48.188;17.134;2022-08-30T05:04:12;49646.84;;;-134.68
12409;BMP180;6268;48.188;17.134;2022-08-30T05:06:42;49646.84;;;-134.68
12409;BMP180;6268;48.188;17.134;2022-08-30T05:09:11;49644.88;;;-134.68
12409;BMP180;6268;48.188;17.134;2022-08-30T05:11:40;49648.78;;;-134.68
12409;BMP180;6268;48.188;17.134;2022-08-30T05:14:09;49650.72;;;-134.68
12409;BMP180;6268;48.188;17.134;2022-08-30T05:16:38;49648.78;;;-134.68
12409;BMP180;6268;48.188;17.134;2022-08-30T05:19:08;49650.72;;;-134.68
12409;BMP180;6268;48.188;17.134;2022-08-30T05:21:37;49648.78;;;-134.68
12409;BMP180;6268;48.188;17.134;2022-08-30T05:24:09;49646.84;;;-134.68
12409;BMP180;6268;48.188;17.134;2022-08-30T05:26:38;49650.72;;;-134.68
12409;BMP180;6268;48.188;17.134;2022-08-30T05:29:07;49648.78;;;-134.68
12409;BMP180;6268;48.188;17.134;2022-08-30T05:31:36;49648.78;;;-134.68
12409;BMP180;6268;48.188;17.134;2022-08-30T05:34:05;49646.84;;;-134.68
12409;BMP180;6268;48.188;17.134;2022-08-30T05:36:36;49650.72;;;-134.68
12409;BMP180;6268;48.188;17.134;2022-08-30T05:39:09;49650.72;;;-134.68
12409;BMP180;6268;48.188;17.134;2022-08-30T05:41:38;49644.88;;;-134.68
12409;BMP180;6268;48.188;17.134;2022-08-30T05:44:08;49646.84;;;-134.68
12409;BMP180;6268;48.188;17.134;2022-08-30T05:46:37;49648.78;;;-134.68
12409;BMP180;6268;48.188;17.134;2022-08-30T05:49:11;49648.78;;;-134.68
12409;BMP180;6268;48.188;17.134;2022-08-30T05:51:41;49646.84;;;-134.68
12409;BMP180;6268;48.188;17.134;2022-08-30T05:54:13;49650.72;;;-134.68
12409;BMP180;6268;48.188;17.134;2022-08-30T05:56:44;49648.78;;;-134.68
12409;BMP180;6268;48.188;17.134;2022-08-30T05:59:14;49650.72;;;-134.68
12409;BMP180;6268;48.188;17.134;2022-08-30T06:01:45;49646.84;;;-134.68
12409;BMP180;6268;48.188;17.134;2022-08-30T06:04:15;49646.84;;;-134.68
12409;BMP180;6268;48.188;17.134;2022-08-30T06:06:44;49652.66;;;-134.68
12409;BMP180;6268;48.188;17.134;2022-08-30T06:09:14;49648.78;;;-134.68
12409;BMP180;6268;48.188;17.134;2022-08-30T06:11:45;49650.72;;;-134.68
12409;BMP180;6268;48.188;17.134;2022-08-30T06:14:14;49650.72;;;-134.68
12409;BMP180;6268;48.188;17.134;2022-08-30T06:16:43;49650.72;;;-134.68
12409;BMP180;6268;48.188;17.134;2022-08-30T06:19:13;49650.72;;;-134.68
12409;BMP180;6268;48.188;17.134;2022-08-30T06:21:46;49650.72;;;-134.68
12409;BMP180;6268;48.188;17.134;2022-08-30T06:24:17;49650.72;;;-134.68
12409;BMP180;6268;48.188;17.134;2022-08-30T06:27:02;49646.84;;;-134.68
12409;BMP180;6268;48.188;17.134;2022-08-30T06:29:31;49650.72;;;-134.68
12409;BMP180;6268;48.188;17.134;2022-08-30T06:31:59;49650.72;;;-134.68
12409;BMP180;6268;48.188;17.134;2022-08-30T06:34:29;49650.72;;;-134.68
12409;BMP180;6268;48.188;17.134;2022-08-30T06:36:57;49646.84;;;-134.68
12409;BMP180;6268;48.188;17.134;2022-08-30T06:39:27;49650.72;;;-134.68
12409;BMP180;6268;48.188;17.134;2022-08-30T06:41:56;49652.66;;;-134.68
12409;BMP180;6268;48.188;17.134;2022-08-30T06:44:25;49648.78;;;-134.68
12409;BMP180;6268;48.188;17.134;2022-08-30T06:46:56;49648.78;;;-134.68
12409;BMP180;6268;48.188;17.134;2022-08-30T06:49:25;49648.78;;;-134.68
12409;BMP180;6268;48.188;17.134;2022-08-30T06:51:54;49650.72;;;-134.68
12409;BMP180;6268;48.188;17.134;2022-08-30T06:54:23;49650.72;;;-134.68
12409;BMP180;6268;48.188;17.134;2022-08-30T06:56:53;49650.72;;;-134.68
12409;BMP180;6268;48.188;17.134;2022-08-30T06:59:25;49650.72;;;-134.68
12409;BMP180;6268;48.188;17.134;2022-08-30T07:01:55;49650.72;;;-134.68
12409;BMP180;6268;48.188;17.134;2022-08-30T07:04:24;49646.84;;;-134.68
12409;BMP180;6268;48.188;17.134;2022-08-30T07:06:53;49650.72;;;-134.68
12409;BMP180;6268;48.188;17.134;2022-08-30T07:09:22;49648.78;;;-134.68
12409;BMP180;6268;48.188;17.134;2022-08-30T07:11:53;49654.59;;;-134.68
12409;BMP180;6268;48.188;17.134;2022-08-30T07:14:22;49652.66;;;-134.68
12409;BMP180;6268;48.188;17.134;2022-08-30T07:16:50;49650.72;;;-134.68
12409;BMP180;6268;48.188;17.134;2022-08-30T07:19:19;49650.72;;;-134.68
12409;BMP180;6268;48.188;17.134;2022-08-30T07:21:49;49648.78;;;-134.68
12409;BMP180;6268;48.188;17.134;2022-08-30T07:24:19;49650.72;;;-134.68
12409;BMP180;6268;48.188;17.134;2022-08-30T07:26:49;49648.78;;;-134.68
12409;BMP180;6268;48.188;17.134;2022-08-30T07:29:20;49648.78;;;-134.68
12409;BMP180;6268;48.188;17.134;2022-08-30T07:31:48;49648.78;;;-134.68
12409;BMP180;6268;48.188;17.134;2022-08-30T07:34:17;49648.78;;;-134.68
12409;BMP180;6268;48.188;17.134;2022-08-30T07:36:50;49650.72;;;-134.68
12409;BMP180;6268;48.188;17.134;2022-08-30T07:39:20;49648.78;;;-134.68
12409;BMP180;6268;48.188;17.134;2022-08-30T07:41:48;49650.72;;;-134.68
12409;BMP180;6268;48.188;17.134;2022-08-30T07:44:19;49650.72;;;-134.68
12409;BMP180;6268;48.188;17.134;2022-08-30T07:46:51;49650.72;;;-134.68
12409;BMP180;6268;48.188;17.134;2022-08-30T07:49:19;49650.72;;;-134.68
12409;BMP180;6268;48.188;17.134;2022-08-30T07:51:48;49652.66;;;-134.68
12409;BMP180;6268;48.188;17.134;2022-08-30T07:54:18;49646.84;;;-134.68
12409;BMP180;6268;48.188;17.134;2022-08-30T07:56:46;49650.72;;;-134.68
12409;BMP180;6268;48.188;17.134;2022-08-30T07:59:16;49650.72;;;-134.68
12409;BMP180;6268;48.188;17.134;2022-08-30T08:01:46;49650.72;;;-134.68
12409;BMP180;6268;48.188;17.134;2022-08-30T08:04:15;49650.72;;;-134.68
12409;BMP180;6268;48.188;17.134;2022-08-30T08:06:43;49650.72;;;-134.68
12409;BMP180;6268;48.188;17.134;2022-08-30T08:09:12;49652.66;;;-134.68
12409;BMP180;6268;48.188;17.134;2022-08-30T08:11:41;49650.72;;;-134.68
12409;BMP180;6268;48.188;17.134;2022-08-30T08:14:10;49650.72;;;-134.68
12409;BMP180;6268;48.188;17.134;2022-08-30T08:16:39;49648.78;;;-134.68
12409;BMP180;6268;48.188;17.134;2022-08-30T08:19:12;49648.78;;;-134.68
12409;BMP180;6268;48.188;17.134;2022-08-30T08:21:41;49648.78;;;-134.68
12409;BMP180;6268;48.188;17.134;2022-08-30T08:24:10;49648.78;;;-134.68
12409;BMP180;6268;48.188;17.134;2022-08-30T08:26:39;49648.78;;;-134.68
12409;BMP180;6268;48.188;17.134;2022-08-30T08:29:12;49652.66;;;-134.68
12409;BMP180;6268;48.188;17.134;2022-08-30T08:31:41;49650.72;;;-134.68
12409;BMP180;6268;48.188;17.134;2022-08-30T08:34:13;49650.72;;;-134.68
12409;BMP180;6268;48.188;17.134;2022-08-30T08:36:45;49646.84;;;-134.68
12409;BMP180;6268;48.188;17.134;2022-08-30T08:39:16;49648.78;;;-134.68
12409;BMP180;6268;48.188;17.134;2022-08-30T08:41:57;49646.84;;;-134.68
12409;BMP180;6268;48.188;17.134;2022-08-30T08:44:48;49648.78;;;-134.68
12409;BMP180;6268;48.188;17.134;2022-08-30T08:47:28;49648.78;;;-134.68
12409;BMP180;6268;48.188;17.134;2022-08-30T08:50:05;49650.72;;;-134.68
12409;BMP180;6268;48.188;17.134;2022-08-30T08:52:49;49644.88;;;-134.68
12409;BMP180;6268;48.188;17.134;2022-08-30T08:55:52;49646.84;;;-134.68
12409;BMP180;6268;48.188;17.134;2022-08-30T08:58:25;49650.72;;;-134.68
12409;BMP180;6268;48.188;17.134;2022-08-30T09:00:55;49646.84;;;-134.68
12409;BMP180;6268;48.188;17.134;2022-08-30T09:03:28;49646.84;;;-134.68
12409;BMP180;6268;48.188;17.134;2022-08-30T09:06:00;49648.78;;;-134.68
12409;BMP180;6268;48.188;17.134;2022-08-30T09:08:31;49648.78;;;-134.68
12409;BMP180;6268;48.188;17.134;2022-08-30T09:11:05;49648.78;;;-134.68
12409;BMP180;6268;48.188;17.134;2022-08-30T09:13:37;49650.72;;;-134.68
12409;BMP180;6268;48.188;17.134;2022-08-30T09:16:06;49652.66;;;-134.68
12409;BMP180;6268;48.188;17.134;2022-08-30T09:18:44;49646.84;;;-134.68
12409;BMP180;6268;48.188;17.134;2022-08-30T09:21:24;49650.72;;;-134.68
12409;BMP180;6268;48.188;17.134;2022-08-30T09:24:01;49646.84;;;-134.68
12409;BMP180;6268;48.188;17.134;2022-08-30T09:26:34;49648.78;;;-134.68
12409;BMP180;6268;48.188;17.134;2022-08-30T09:29:04;49650.72;;;-134.68
12409;BMP180;6268;48.188;17.134;2022-08-30T09:31:48;49650.72;;;-134.68
12409;BMP180;6268;48.188;17.134;2022-08-30T09:34:36;49650.72;;;-134.68
12409;BMP180;6268;48.188;17.134;2022-08-30T09:37:25;49650.72;;;-134.68
12409;BMP180;6268;48.188;17.134;2022-08-30T09:39:54;49646.84;;;-134.68
12409;BMP180;6268;48.188;17.134;2022-08-30T09:42:26;49648.78;;;-134.68
12409;BMP180;6268;48.188;17.134;2022-08-30T09:44:57;49648.78;;;-134.68
12409;BMP180;6268;48.188;17.134;2022-08-30T09:47:41;49648.78;;;-134.68
12409;BMP180;6268;48.188;17.134;2022-08-30T09:50:13;49646.84;;;-134.68
12409;BMP180;6268;48.188;17.134;2022-08-30T09:52:59;49646.84;;;-134.68
12409;BMP180;6268;48.188;17.134;2022-08-30T09:55:56;49650.72;;;-134.68
12409;BMP180;6268;48.188;17.134;2022-08-30T09:58:46;49648.78;;;-134.68
12409;BMP180;6268;48.188;17.134;2022-08-30T10:01:26;49646.84;;;-134.68
12409;BMP180;6268;48.188;17.134;2022-08-30T10:04:06;49648.78;;;-134.68
12409;BMP180;6268;48.188;17.134;2022-08-30T10:06:46;49646.84;;;-134.68
12409;BMP180;6268;48.188;17.134;2022-08-30T10:09:33;49648.78;;;-134.68
12409;BMP180;6268;48.188;17.134;2022-08-30T10:12:14;49646.84;;;-134.68
12409;BMP180;6268;48.188;17.134;2022-08-30T10:15:02;49646.84;;;-134.68
12409;BMP180;6268;48.188;17.134;2022-08-30T10:17:46;49646.84;;;-134.68
12409;BMP180;6268;48.188;17.134;2022-08-30T10:20:24;49648.78;;;-134.68
12409;BMP180;6268;48.188;17.134;2022-08-30T10:23:03;49646.84;;;-134.68
12409;BMP180;6268;48.188;17.134;2022-08-30T10:25:41;49646.84;;;-134.68
12409;BMP180;6268;48.188;17.134;2022-08-30T10:28:16;49646.84;;;-134.68
12409;BMP180;6268;48.188;17.134;2022-08-30T10:30:55;49650.72;;;-134.68
12409;BMP180;6268;48.188;17.134;2022-08-30T10:33:32;49648.78;;;-134.68
12409;BMP180;6268;48.188;17.134;2022-08-30T10:36:09;49644.88;;;-134.68
12409;BMP180;6268;48.188;17.134;2022-08-30T10:38:40;49648.78;;;-134.68
12409;BMP180;6268;48.188;17.134;2022-08-30T10:41:28;49648.78;;;-134.68
12409;BMP180;6268;48.188;17.134;2022-08-30T10:44:06;49646.84;;;-134.68
12409;BMP180;6268;48.188;17.134;2022-08-30T10:46:49;49646.84;;;-134.68
12409;BMP180;6268;48.188;17.134;2022-08-30T10:49:24;49646.84;;;-134.68
12409;BMP180;6268;48.188;17.134;2022-08-30T10:52:02;49648.78;;;-134.68
12409;BMP180;6268;48.188;17.134;2022-08-30T10:54:41;49648.78;;;-134.68
12409;BMP180;6268;48.188;17.134;2022-08-30T10:57:14;49648.78;;;-134.68
12409;BMP180;6268;48.188;17.134;2022-08-30T10:59:48;49646.84;;;-134.68
12409;BMP180;6268;48.188;17.134;2022-08-30T11:02:46;49646.84;;;-134.68
12409;BMP180;6268;48.188;17.134;2022-08-30T11:05:44;49644.88;;;-134.68
12409;BMP180;6268;48.188;17.134;2022-08-30T11:08:37;49646.84;;;-134.68
12409;BMP180;6268;48.188;17.134;2022-08-30T11:11:21;49646.84;;;-134.68
12409;BMP180;6268;48.188;17.134;2022-08-30T11:14:01;49644.88;;;-134.68
12409;BMP180;6268;48.188;17.134;2022-08-30T11:16:39;49646.84;;;-134.68
12409;BMP180;6268;48.188;17.134;2022-08-30T11:19:18;49650.72;;;-134.68
12409;BMP180;6268;48.188;17.134;2022-08-30T11:21:49;49644.88;;;-134.68
12409;BMP180;6268;48.188;17.134;2022-08-30T11:24:22;49646.84;;;-134.68
12409;BMP180;6268;48.188;17.134;2022-08-30T11:27:00;49646.84;;;-134.68
12409;BMP180;6268;48.188;17.134;2022-08-30T11:29:39;49642.94;;;-134.68
12409;BMP180;6268;48.188;17.134;2022-08-30T11:33:00;49642.94;;;-134.68
12409;BMP180;6268;48.188;17.134;2022-08-30T11:35:40;49646.84;;;-134.68
12409;BMP180;6268;48.188;17.134;2022-08-30T11:39:01;49644.88;;;-134.68
12409;BMP180;6268;48.188;17.134;2022-08-30T11:41:36;49648.78;;;-134.68
12409;BMP180;6268;48.188;17.134;2022-08-30T11:44:30;49644.88;;;-134.68
12409;BMP180;6268;48.188;17.134;2022-08-30T11:47:01;49646.84;;;-134.68
12409;BMP180;6268;48.188;17.134;2022-08-30T11:50:06;49646.84;;;-134.68
12409;BMP180;6268;48.188;17.134;2022-08-30T11:52:56;49646.84;;;-134.68
12409;BMP180;6268;48.188;17.134;2022-08-30T11:55:46;49644.88;;;-134.68
12409;BMP180;6268;48.188;17.134;2022-08-30T11:58:35;49644.88;;;-134.68
12409;BMP180;6268;48.188;17.134;2022-08-30T12:01:20;49642.94;;;-134.68
12409;BMP180;6268;48.188;17.134;2022-08-30T12:04:24;49644.88;;;-134.68
12409;BMP180;6268;48.188;17.134;2022-08-30T12:06:57;49644.88;;;-134.68
12409;BMP180;6268;48.188;17.134;2022-08-30T12:10:00;49646.84;;;-134.68
12409;BMP180;6268;48.188;17.134;2022-08-30T12:12:54;49646.84;;;-134.68
12409;BMP180;6268;48.188;17.134;2022-08-30T12:18:36;49642.94;;;-134.68
12409;BMP180;6268;48.188;17.134;2022-08-30T12:21:26;49646.84;;;-134.68
12409;BMP180;6268;48.188;17.134;2022-08-30T12:24:20;49646.84;;;-134.68
12409;BMP180;6268;48.188;17.134;2022-08-30T12:26:52;49644.88;;;-134.68
12409;BMP180;6268;48.188;17.134;2022-08-30T12:29:24;49644.88;;;-134.68
12409;BMP180;6268;48.188;17.134;2022-08-30T12:31:57;49646.84;;;-134.68
12409;BMP180;6268;48.188;17.134;2022-08-30T12:34:35;49646.84;;;-134.68
12409;BMP180;6268;48.188;17.134;2022-08-30T12:37:08;49646.84;;;-134.68
12409;BMP180;6268;48.188;17.134;2022-08-30T12:39:42;49642.94;;;-134.68
12409;BMP180;6268;48.188;17.134;2022-08-30T12:42:16;49641.00;;;-134.68
12409;BMP180;6268;48.188;17.134;2022-08-30T12:44:48;49642.94;;;-134.68
12409;BMP180;6268;48.188;17.134;2022-08-30T12:47:22;49642.94;;;-134.68
12409;BMP180;6268;48.188;17.134;2022-08-30T12:49:54;49644.88;;;-134.68
12409;BMP180;6268;48.188;17.134;2022-08-30T12:52:33;49644.88;;;-134.68
12409;BMP180;6268;48.188;17.134;2022-08-30T12:55:13;49642.94;;;-134.68
12409;BMP180;6268;48.188;17.134;2022-08-30T12:57:58;49644.88;;;-134.68
12409;BMP180;6268;48.188;17.134;2022-08-30T13:00:30;49644.88;;;-134.68
12409;BMP180;6268;48.188;17.134;2022-08-30T13:03:03;49644.88;;;-134.68
12409;BMP180;6268;48.188;17.134;2022-08-30T13:05:46;49642.94;;;-134.68
12409;BMP180;6268;48.188;17.134;2022-08-30T13:08:22;49644.88;;;-134.68
12409;BMP180;6268;48.188;17.134;2022-08-30T13:11:01;49642.94;;;-134.68
12409;BMP180;6268;48.188;17.134;2022-08-30T13:13:39;49642.94;;;-134.68
12409;BMP180;6268;48.188;17.134;2022-08-30T13:16:23;49646.84;;;-134.68
12409;BMP180;6268;48.188;17.134;2022-08-30T13:19:26;49644.88;;;-134.68
12409;BMP180;6268;48.188;17.134;2022-08-30T13:21:59;49646.84;;;-134.68
12409;BMP180;6268;48.188;17.134;2022-08-30T13:24:29;49646.84;;;-134.68
12409;BMP180;6268;48.188;17.134;2022-08-30T13:27:03;49644.88;;;-134.68
12409;BMP180;6268;48.188;17.134;2022-08-30T13:29:35;49642.94;;;-134.68
12409;BMP180;6268;48.188;17.134;2022-08-30T13:32:04;49646.84;;;-134.68
12409;BMP180;6268;48.188;17.134;2022-08-30T13:34:33;49646.84;;;-134.68
12409;BMP180;6268;48.188;17.134;2022-08-30T13:37:04;49646.84;;;-134.68
12409;BMP180;6268;48.188;17.134;2022-08-30T13:39:53;49642.94;;;-134.68
12409;BMP180;6268;48.188;17.134;2022-08-30T13:42:26;49644.88;;;-134.68
12409;BMP180;6268;48.188;17.134;2022-08-30T13:44:59;49644.88;;;-134.68
12409;BMP180;6268;48.188;17.134;2022-08-30T13:47:29;49646.84;;;-134.68
12409;BMP180;6268;48.188;17.134;2022-08-30T13:49:59;49644.88;;;-134.68
12409;BMP180;6268;48.188;17.134;2022-08-30T13:52:28;49644.88;;;-134.68
12409;BMP180;6268;48.188;17.134;2022-08-30T13:54:57;49646.84;;;-134.68
12409;BMP180;6268;48.188;17.134;2022-08-30T13:57:29;49648.78;;;-134.68
12409;BMP180;6268;48.188;17.134;2022-08-30T14:00:19;49642.94;;;-134.68
12409;BMP180;6268;48.188;17.134;2022-08-30T14:02:50;49646.84;;;-134.68
12409;BMP180;6268;48.188;17.134;2022-08-30T14:05:29;49646.84;;;-134.68
12409;BMP180;6268;48.188;17.134;2022-08-30T14:08:20;49644.88;;;-134.68
12409;BMP180;6268;48.188;17.134;2022-08-30T14:11:10;49642.94;;;-134.68
12409;BMP180;6268;48.188;17.134;2022-08-30T14:13:41;49642.94;;;-134.68
12409;BMP180;6268;48.188;17.134;2022-08-30T14:16:32;49642.94;;;-134.68
12409;BMP180;6268;48.188;17.134;2022-08-30T14:19:01;49646.84;;;-134.68
12409;BMP180;6268;48.188;17.134;2022-08-30T14:21:32;49648.78;;;-134.68
12409;BMP180;6268;48.188;17.134;2022-08-30T14:24:01;49646.84;;;-134.68